Airport Name : London

Other Name : London

ICAO : CYXU

IATA : YXU

FAA :

Latitude : 43.035556

Longitude : -81.153889

Country : Canada

Local Date and Time : 19 Sep 2020 02:36

 

TAF (Terminal Aerodrome Forecast)

TAF CYXU 190539Z 1906/2006 36006KT P6SM SKC BECMG 1907/1909 06007KT BECMG 1913/1915 09006KT FM191900 VRB03KT P6SM SKC PROB30 2005/2006 2SM BR RMK NXT FCST BY 191200Z

 

METAR (METeorological Aerodrome Report)

CYXU 190600Z 01005KT 15SM SKC 02/M01 A3038 RMK SLP294

CYXU 190500Z 36006KT 15SM SKC 02/M01 A3038 RMK SLP294

CYXU 190400Z 01006KT 15SM SKC 03/M01 A3037 RMK SLP291

CYXU 190300Z 35007KT 15SM SKC 04/00 A3035 RMK SLP286

To Charter a Jet Click here.